sensor_id;sensor_type;location;lat;lon;timestamp;pressure;altitude;pressure_sealevel;temperature
68952;BMP180;56000;51.146;17.112;2023-12-04T00:02:09;100884.40;;;-5.30
68952;BMP180;56000;51.146;17.112;2023-12-04T00:04:41;100882.60;;;-5.30
68952;BMP180;56000;51.146;17.112;2023-12-04T00:07:14;100889.40;;;-5.32
68952;BMP180;56000;51.146;17.112;2023-12-04T00:09:47;100890.80;;;-5.40
68952;BMP180;56000;51.146;17.112;2023-12-04T00:12:20;100894.20;;;-5.40
68952;BMP180;56000;51.146;17.112;2023-12-04T00:14:53;100898.60;;;-5.40
68952;BMP180;56000;51.146;17.112;2023-12-04T00:17:25;100896.80;;;-5.44
68952;BMP180;56000;51.146;17.112;2023-12-04T00:19:58;100891.00;;;-5.48
68952;BMP180;56000;51.146;17.112;2023-12-04T00:22:31;100890.40;;;-5.50
68952;BMP180;56000;51.146;17.112;2023-12-04T00:25:05;100888.00;;;-5.50
68952;BMP180;56000;51.146;17.112;2023-12-04T00:27:38;100888.80;;;-5.60
68952;BMP180;56000;51.146;17.112;2023-12-04T00:30:12;100888.20;;;-5.60
68952;BMP180;56000;51.146;17.112;2023-12-04T00:32:45;100891.40;;;-5.60
68952;BMP180;56000;51.146;17.112;2023-12-04T00:35:18;100890.40;;;-5.60
68952;BMP180;56000;51.146;17.112;2023-12-04T00:37:51;100894.20;;;-5.70
68952;BMP180;56000;51.146;17.112;2023-12-04T00:40:24;100895.00;;;-5.70
68952;BMP180;56000;51.146;17.112;2023-12-04T00:42:57;100899.80;;;-5.80
68952;BMP180;56000;51.146;17.112;2023-12-04T00:45:30;100903.40;;;-5.80
68952;BMP180;56000;51.146;17.112;2023-12-04T00:48:03;100902.00;;;-5.90
68952;BMP180;56000;51.146;17.112;2023-12-04T00:50:36;100906.00;;;-6.00
68952;BMP180;56000;51.146;17.112;2023-12-04T00:53:09;100910.80;;;-6.00
68952;BMP180;56000;51.146;17.112;2023-12-04T00:55:42;100911.60;;;-6.10
68952;BMP180;56000;51.146;17.112;2023-12-04T00:58:15;100904.60;;;-6.14
68952;BMP180;56000;51.146;17.112;2023-12-04T01:00:48;100903.60;;;-6.20
68952;BMP180;56000;51.146;17.112;2023-12-04T01:03:23;100902.60;;;-6.30
68952;BMP180;56000;51.146;17.112;2023-12-04T01:05:58;100902.00;;;-6.30
68952;BMP180;56000;51.146;17.112;2023-12-04T01:08:30;100906.80;;;-6.32
68952;BMP180;56000;51.146;17.112;2023-12-04T01:11:04;100906.40;;;-6.40
68952;BMP180;56000;51.146;17.112;2023-12-04T01:13:36;100909.00;;;-6.40
68952;BMP180;56000;51.146;17.112;2023-12-04T01:16:10;100907.60;;;-6.32
68952;BMP180;56000;51.146;17.112;2023-12-04T01:18:43;100908.60;;;-6.32
68952;BMP180;56000;51.146;17.112;2023-12-04T01:21:16;100906.80;;;-6.30
68952;BMP180;56000;51.146;17.112;2023-12-04T01:23:50;100905.80;;;-6.28
68952;BMP180;56000;51.146;17.112;2023-12-04T01:26:23;100900.40;;;-6.20
68952;BMP180;56000;51.146;17.112;2023-12-04T01:28:55;100903.80;;;-6.20
68952;BMP180;56000;51.146;17.112;2023-12-04T01:31:28;100904.00;;;-6.20
68952;BMP180;56000;51.146;17.112;2023-12-04T01:34:02;100913.80;;;-6.10
68952;BMP180;56000;51.146;17.112;2023-12-04T01:36:34;100920.20;;;-6.08
68952;BMP180;56000;51.146;17.112;2023-12-04T01:39:08;100912.00;;;-6.00
68952;BMP180;56000;51.146;17.112;2023-12-04T01:41:41;100922.40;;;-6.08
68952;BMP180;56000;51.146;17.112;2023-12-04T01:44:14;100927.20;;;-6.10
68952;BMP180;56000;51.146;17.112;2023-12-04T01:46:47;100925.60;;;-6.20
68952;BMP180;56000;51.146;17.112;2023-12-04T01:49:20;100922.80;;;-6.30
68952;BMP180;56000;51.146;17.112;2023-12-04T01:51:53;100920.40;;;-6.36
68952;BMP180;56000;51.146;17.112;2023-12-04T01:54:26;100919.40;;;-6.40
68952;BMP180;56000;51.146;17.112;2023-12-04T01:56:59;100913.40;;;-6.50
68952;BMP180;56000;51.146;17.112;2023-12-04T01:59:34;100911.20;;;-6.50
68952;BMP180;56000;51.146;17.112;2023-12-04T02:02:07;100905.40;;;-6.60
68952;BMP180;56000;51.146;17.112;2023-12-04T02:04:40;100909.80;;;-6.60
68952;BMP180;56000;51.146;17.112;2023-12-04T02:07:13;100903.60;;;-6.60
68952;BMP180;56000;51.146;17.112;2023-12-04T02:09:45;100902.00;;;-6.50
68952;BMP180;56000;51.146;17.112;2023-12-04T02:12:19;100896.00;;;-6.50
68952;BMP180;56000;51.146;17.112;2023-12-04T02:14:52;100902.20;;;-6.44
68952;BMP180;56000;51.146;17.112;2023-12-04T02:17:26;100904.00;;;-6.40
68952;BMP180;56000;51.146;17.112;2023-12-04T02:20:00;100904.60;;;-6.46
68952;BMP180;56000;51.146;17.112;2023-12-04T02:22:37;100903.80;;;-6.50
68952;BMP180;56000;51.146;17.112;2023-12-04T02:25:11;100900.80;;;-6.50
68952;BMP180;56000;51.146;17.112;2023-12-04T02:28:07;100899.40;;;-6.60
68952;BMP180;56000;51.146;17.112;2023-12-04T02:30:43;100897.20;;;-6.70
68952;BMP180;56000;51.146;17.112;2023-12-04T02:33:18;100900.20;;;-6.78
68952;BMP180;56000;51.146;17.112;2023-12-04T02:35:54;100903.20;;;-6.80
68952;BMP180;56000;51.146;17.112;2023-12-04T02:38:27;100907.00;;;-6.90
68952;BMP180;56000;51.146;17.112;2023-12-04T02:41:01;100899.20;;;-7.00
68952;BMP180;56000;51.146;17.112;2023-12-04T02:43:34;100896.80;;;-7.08
68952;BMP180;56000;51.146;17.112;2023-12-04T02:46:08;100901.60;;;-7.10
68952;BMP180;56000;51.146;17.112;2023-12-04T02:48:41;100892.60;;;-7.20
68952;BMP180;56000;51.146;17.112;2023-12-04T02:51:14;100892.40;;;-7.20
68952;BMP180;56000;51.146;17.112;2023-12-04T02:53:47;100892.60;;;-7.30
68952;BMP180;56000;51.146;17.112;2023-12-04T02:56:20;100893.00;;;-7.30
68952;BMP180;56000;51.146;17.112;2023-12-04T02:58:53;100894.20;;;-7.30
68952;BMP180;56000;51.146;17.112;2023-12-04T03:01:26;100895.60;;;-7.20
68952;BMP180;56000;51.146;17.112;2023-12-04T03:03:59;100901.80;;;-7.20
68952;BMP180;56000;51.146;17.112;2023-12-04T03:06:32;100898.20;;;-7.20
68952;BMP180;56000;51.146;17.112;2023-12-04T03:09:06;100897.40;;;-7.20
68952;BMP180;56000;51.146;17.112;2023-12-04T03:11:42;100900.00;;;-7.20
68952;BMP180;56000;51.146;17.112;2023-12-04T03:14:15;100891.40;;;-7.20
68952;BMP180;56000;51.146;17.112;2023-12-04T03:16:48;100895.20;;;-7.24
68952;BMP180;56000;51.146;17.112;2023-12-04T03:19:20;100899.00;;;-7.30
68952;BMP180;56000;51.146;17.112;2023-12-04T03:21:53;100904.00;;;-7.30
68952;BMP180;56000;51.146;17.112;2023-12-04T03:24:26;100908.40;;;-7.30
68952;BMP180;56000;51.146;17.112;2023-12-04T03:26:59;100910.00;;;-7.30
68952;BMP180;56000;51.146;17.112;2023-12-04T03:29:32;100913.00;;;-7.32
68952;BMP180;56000;51.146;17.112;2023-12-04T03:32:06;100920.20;;;-7.40
68952;BMP180;56000;51.146;17.112;2023-12-04T03:34:39;100921.80;;;-7.40
68952;BMP180;56000;51.146;17.112;2023-12-04T03:37:12;100923.00;;;-7.42
68952;BMP180;56000;51.146;17.112;2023-12-04T03:39:45;100921.60;;;-7.50
68952;BMP180;56000;51.146;17.112;2023-12-04T03:42:18;100923.60;;;-7.50
68952;BMP180;56000;51.146;17.112;2023-12-04T03:44:51;100926.20;;;-7.60
68952;BMP180;56000;51.146;17.112;2023-12-04T03:47:24;100926.80;;;-7.68
68952;BMP180;56000;51.146;17.112;2023-12-04T03:49:58;100925.80;;;-7.70
68952;BMP180;56000;51.146;17.112;2023-12-04T03:52:31;100920.60;;;-7.78
68952;BMP180;56000;51.146;17.112;2023-12-04T03:55:05;100916.40;;;-7.80
68952;BMP180;56000;51.146;17.112;2023-12-04T03:57:38;100918.20;;;-7.82
68952;BMP180;56000;51.146;17.112;2023-12-04T04:00:14;100926.20;;;-7.90
68952;BMP180;56000;51.146;17.112;2023-12-04T04:02:47;100924.60;;;-7.90
68952;BMP180;56000;51.146;17.112;2023-12-04T04:05:20;100918.60;;;-7.94
68952;BMP180;56000;51.146;17.112;2023-12-04T04:07:53;100919.00;;;-8.00
68952;BMP180;56000;51.146;17.112;2023-12-04T04:10:26;100919.80;;;-8.02
68952;BMP180;56000;51.146;17.112;2023-12-04T04:12:59;100919.60;;;-8.10
68952;BMP180;56000;51.146;17.112;2023-12-04T04:15:32;100913.40;;;-8.10
68952;BMP180;56000;51.146;17.112;2023-12-04T04:18:05;100910.00;;;-8.10
68952;BMP180;56000;51.146;17.112;2023-12-04T04:20:38;100910.80;;;-8.10
68952;BMP180;56000;51.146;17.112;2023-12-04T04:23:11;100899.80;;;-8.12
68952;BMP180;56000;51.146;17.112;2023-12-04T04:25:43;100897.80;;;-8.12
68952;BMP180;56000;51.146;17.112;2023-12-04T04:28:16;100885.40;;;-8.10
68952;BMP180;56000;51.146;17.112;2023-12-04T04:30:49;100885.80;;;-8.12
68952;BMP180;56000;51.146;17.112;2023-12-04T04:33:22;100889.40;;;-8.12
68952;BMP180;56000;51.146;17.112;2023-12-04T04:35:55;100888.80;;;-8.16
68952;BMP180;56000;51.146;17.112;2023-12-04T04:38:28;100883.40;;;-8.20
68952;BMP180;56000;51.146;17.112;2023-12-04T04:41:01;100876.20;;;-8.20
68952;BMP180;56000;51.146;17.112;2023-12-04T04:43:34;100882.40;;;-8.18
68952;BMP180;56000;51.146;17.112;2023-12-04T04:46:07;100879.40;;;-8.18
68952;BMP180;56000;51.146;17.112;2023-12-04T04:48:41;100883.80;;;-8.18
68952;BMP180;56000;51.146;17.112;2023-12-04T04:51:14;100887.60;;;-8.20
68952;BMP180;56000;51.146;17.112;2023-12-04T04:53:46;100890.20;;;-8.20
68952;BMP180;56000;51.146;17.112;2023-12-04T04:56:20;100891.60;;;-8.26
68952;BMP180;56000;51.146;17.112;2023-12-04T04:58:52;100885.20;;;-8.30
68952;BMP180;56000;51.146;17.112;2023-12-04T05:01:26;100882.60;;;-8.30
68952;BMP180;56000;51.146;17.112;2023-12-04T05:03:58;100883.80;;;-8.40
68952;BMP180;56000;51.146;17.112;2023-12-04T05:06:31;100893.00;;;-8.40
68952;BMP180;56000;51.146;17.112;2023-12-04T05:09:04;100892.40;;;-8.50
68952;BMP180;56000;51.146;17.112;2023-12-04T05:11:37;100881.60;;;-8.50
68952;BMP180;56000;51.146;17.112;2023-12-04T05:14:10;100875.00;;;-8.50
68952;BMP180;56000;51.146;17.112;2023-12-04T05:16:43;100884.20;;;-8.50
68952;BMP180;56000;51.146;17.112;2023-12-04T05:19:16;100885.60;;;-8.50
68952;BMP180;56000;51.146;17.112;2023-12-04T05:21:49;100883.00;;;-8.58
68952;BMP180;56000;51.146;17.112;2023-12-04T05:24:22;100883.40;;;-8.60
68952;BMP180;56000;51.146;17.112;2023-12-04T05:26:55;100872.00;;;-8.60
68952;BMP180;56000;51.146;17.112;2023-12-04T05:29:28;100865.20;;;-8.60
68952;BMP180;56000;51.146;17.112;2023-12-04T05:32:01;100864.40;;;-8.66
68952;BMP180;56000;51.146;17.112;2023-12-04T05:34:34;100871.00;;;-8.70
68952;BMP180;56000;51.146;17.112;2023-12-04T05:37:07;100875.80;;;-8.70
68952;BMP180;56000;51.146;17.112;2023-12-04T05:39:40;100873.60;;;-8.68
68952;BMP180;56000;51.146;17.112;2023-12-04T05:42:13;100866.00;;;-8.60
68952;BMP180;56000;51.146;17.112;2023-12-04T05:44:46;100867.80;;;-8.60
68952;BMP180;56000;51.146;17.112;2023-12-04T05:47:19;100869.00;;;-8.60
68952;BMP180;56000;51.146;17.112;2023-12-04T05:49:52;100862.40;;;-8.60
68952;BMP180;56000;51.146;17.112;2023-12-04T05:52:25;100866.60;;;-8.56
68952;BMP180;56000;51.146;17.112;2023-12-04T05:54:58;100864.00;;;-8.50
68952;BMP180;56000;51.146;17.112;2023-12-04T05:57:30;100862.80;;;-8.50
68952;BMP180;56000;51.146;17.112;2023-12-04T06:00:04;100863.80;;;-8.50
68952;BMP180;56000;51.146;17.112;2023-12-04T06:02:44;100858.00;;;-8.42
68952;BMP180;56000;51.146;17.112;2023-12-04T06:05:17;100858.20;;;-8.42
68952;BMP180;56000;51.146;17.112;2023-12-04T06:07:50;100852.00;;;-8.40
68952;BMP180;56000;51.146;17.112;2023-12-04T06:10:23;100848.80;;;-8.40
68952;BMP180;56000;51.146;17.112;2023-12-04T06:12:56;100860.60;;;-8.42
68952;BMP180;56000;51.146;17.112;2023-12-04T06:15:29;100851.80;;;-8.50
68952;BMP180;56000;51.146;17.112;2023-12-04T06:18:02;100849.20;;;-8.50
68952;BMP180;56000;51.146;17.112;2023-12-04T06:20:36;100849.00;;;-8.50
68952;BMP180;56000;51.146;17.112;2023-12-04T06:23:10;100853.00;;;-8.60
68952;BMP180;56000;51.146;17.112;2023-12-04T06:25:45;100860.20;;;-8.62
68952;BMP180;56000;51.146;17.112;2023-12-04T06:28:19;100859.20;;;-8.70
68952;BMP180;56000;51.146;17.112;2023-12-04T06:30:53;100865.80;;;-8.70
68952;BMP180;56000;51.146;17.112;2023-12-04T06:33:27;100867.20;;;-8.70
68952;BMP180;56000;51.146;17.112;2023-12-04T06:36:01;100868.00;;;-8.70
68952;BMP180;56000;51.146;17.112;2023-12-04T06:38:40;100862.60;;;-8.74
68952;BMP180;56000;51.146;17.112;2023-12-04T06:41:16;100862.80;;;-8.74
68952;BMP180;56000;51.146;17.112;2023-12-04T06:43:51;100856.00;;;-8.72
68952;BMP180;56000;51.146;17.112;2023-12-04T06:46:25;100857.80;;;-8.70
68952;BMP180;56000;51.146;17.112;2023-12-04T06:49:01;100848.40;;;-8.70
68952;BMP180;56000;51.146;17.112;2023-12-04T06:51:34;100844.00;;;-8.62
68952;BMP180;56000;51.146;17.112;2023-12-04T06:54:07;100844.00;;;-8.60
68952;BMP180;56000;51.146;17.112;2023-12-04T06:56:41;100840.60;;;-8.50
68952;BMP180;56000;51.146;17.112;2023-12-04T06:59:13;100836.60;;;-8.50
68952;BMP180;56000;51.146;17.112;2023-12-04T07:01:46;100838.40;;;-8.40
68952;BMP180;56000;51.146;17.112;2023-12-04T07:04:20;100830.20;;;-8.38
68952;BMP180;56000;51.146;17.112;2023-12-04T07:06:53;100828.20;;;-8.30
68952;BMP180;56000;51.146;17.112;2023-12-04T07:09:27;100830.00;;;-8.22
68952;BMP180;56000;51.146;17.112;2023-12-04T07:12:00;100829.20;;;-8.18
68952;BMP180;56000;51.146;17.112;2023-12-04T07:14:34;100837.60;;;-8.00
68952;BMP180;56000;51.146;17.112;2023-12-04T07:17:07;100835.20;;;-7.80
68952;BMP180;56000;51.146;17.112;2023-12-04T07:19:42;100846.60;;;-7.70
68952;BMP180;56000;51.146;17.112;2023-12-04T07:22:15;100853.40;;;-7.70
68952;BMP180;56000;51.146;17.112;2023-12-04T07:24:47;100843.60;;;-7.70
68952;BMP180;56000;51.146;17.112;2023-12-04T07:27:20;100851.20;;;-7.62
68952;BMP180;56000;51.146;17.112;2023-12-04T07:29:53;100850.20;;;-7.60
68952;BMP180;56000;51.146;17.112;2023-12-04T07:32:26;100851.80;;;-7.40
68952;BMP180;56000;51.146;17.112;2023-12-04T07:34:58;100849.00;;;-7.20
68952;BMP180;56000;51.146;17.112;2023-12-04T07:37:31;100855.20;;;-6.90
68952;BMP180;56000;51.146;17.112;2023-12-04T07:40:06;100855.80;;;-6.60
68952;BMP180;56000;51.146;17.112;2023-12-04T07:42:40;100847.00;;;-6.30
68952;BMP180;56000;51.146;17.112;2023-12-04T07:45:16;100838.00;;;-6.00
68952;BMP180;56000;51.146;17.112;2023-12-04T07:47:49;100842.20;;;-5.66
68952;BMP180;56000;51.146;17.112;2023-12-04T07:50:21;100834.40;;;-5.32
68952;BMP180;56000;51.146;17.112;2023-12-04T07:52:55;100832.20;;;-4.96
68952;BMP180;56000;51.146;17.112;2023-12-04T07:55:28;100825.20;;;-4.56
68952;BMP180;56000;51.146;17.112;2023-12-04T07:58:01;100823.80;;;-4.10
68952;BMP180;56000;51.146;17.112;2023-12-04T08:00:34;100822.40;;;-3.70
68952;BMP180;56000;51.146;17.112;2023-12-04T08:03:06;100809.00;;;-3.26
68952;BMP180;56000;51.146;17.112;2023-12-04T08:05:39;100808.00;;;-2.88
68952;BMP180;56000;51.146;17.112;2023-12-04T08:08:12;100806.80;;;-2.48
68952;BMP180;56000;51.146;17.112;2023-12-04T08:10:45;100802.20;;;-2.10
68952;BMP180;56000;51.146;17.112;2023-12-04T08:13:18;100795.00;;;-1.80
68952;BMP180;56000;51.146;17.112;2023-12-04T08:15:51;100792.80;;;-1.42
68952;BMP180;56000;51.146;17.112;2023-12-04T08:18:24;100793.40;;;-0.96
68952;BMP180;56000;51.146;17.112;2023-12-04T08:20:56;100789.20;;;-0.54
68952;BMP180;56000;51.146;17.112;2023-12-04T08:23:32;100788.80;;;-0.18
68952;BMP180;56000;51.146;17.112;2023-12-04T08:26:06;100784.60;;;0.20
68952;BMP180;56000;51.146;17.112;2023-12-04T08:28:39;100776.60;;;0.50
68952;BMP180;56000;51.146;17.112;2023-12-04T08:31:13;100785.40;;;0.72
68952;BMP180;56000;51.146;17.112;2023-12-04T08:33:46;100779.80;;;0.90
68952;BMP180;56000;51.146;17.112;2023-12-04T08:36:19;100781.60;;;1.08
68952;BMP180;56000;51.146;17.112;2023-12-04T08:38:52;100777.60;;;1.12
68952;BMP180;56000;51.146;17.112;2023-12-04T08:41:26;100781.40;;;1.40
68952;BMP180;56000;51.146;17.112;2023-12-04T08:43:59;100781.80;;;1.70
68952;BMP180;56000;51.146;17.112;2023-12-04T08:46:32;100780.80;;;2.00
68952;BMP180;56000;51.146;17.112;2023-12-04T08:49:05;100783.00;;;2.30
68952;BMP180;56000;51.146;17.112;2023-12-04T08:51:38;100780.00;;;2.50
68952;BMP180;56000;51.146;17.112;2023-12-04T08:54:11;100785.00;;;2.84
68952;BMP180;56000;51.146;17.112;2023-12-04T08:56:46;100779.20;;;3.20
68952;BMP180;56000;51.146;17.112;2023-12-04T08:59:19;100767.80;;;3.56
68952;BMP180;56000;51.146;17.112;2023-12-04T09:01:52;100768.40;;;3.80
68952;BMP180;56000;51.146;17.112;2023-12-04T09:04:25;100764.00;;;3.98
68952;BMP180;56000;51.146;17.112;2023-12-04T09:06:59;100763.60;;;4.24
68952;BMP180;56000;51.146;17.112;2023-12-04T09:09:52;100760.80;;;4.40
68952;BMP180;56000;51.146;17.112;2023-12-04T09:12:25;100758.80;;;4.56
68952;BMP180;56000;51.146;17.112;2023-12-04T09:14:58;100756.40;;;4.80
68952;BMP180;56000;51.146;17.112;2023-12-04T09:17:31;100752.20;;;5.06
68952;BMP180;56000;51.146;17.112;2023-12-04T09:20:11;100753.20;;;5.40
68952;BMP180;56000;51.146;17.112;2023-12-04T09:22:44;100753.80;;;5.44
68952;BMP180;56000;51.146;17.112;2023-12-04T09:25:23;100750.20;;;5.40
68952;BMP180;56000;51.146;17.112;2023-12-04T09:27:56;100748.00;;;5.40
68952;BMP180;56000;51.146;17.112;2023-12-04T09:30:30;100753.20;;;5.50
68952;BMP180;56000;51.146;17.112;2023-12-04T09:33:03;100749.40;;;5.60
68952;BMP180;56000;51.146;17.112;2023-12-04T09:35:36;100745.60;;;5.66
68952;BMP180;56000;51.146;17.112;2023-12-04T09:38:09;100748.60;;;5.90
68952;BMP180;56000;51.146;17.112;2023-12-04T09:40:42;100753.20;;;6.18
68952;BMP180;56000;51.146;17.112;2023-12-04T09:43:15;100745.80;;;6.40
68952;BMP180;56000;51.146;17.112;2023-12-04T09:45:48;100747.00;;;6.60
68952;BMP180;56000;51.146;17.112;2023-12-04T09:48:23;100736.80;;;6.60
68952;BMP180;56000;51.146;17.112;2023-12-04T09:50:58;100737.40;;;6.60
68952;BMP180;56000;51.146;17.112;2023-12-04T09:53:33;100733.80;;;6.60
68952;BMP180;56000;51.146;17.112;2023-12-04T09:56:09;100726.00;;;6.60
68952;BMP180;56000;51.146;17.112;2023-12-04T09:58:44;100711.80;;;6.50
68952;BMP180;56000;51.146;17.112;2023-12-04T10:01:18;100706.00;;;6.30
68952;BMP180;56000;51.146;17.112;2023-12-04T10:03:51;100698.40;;;6.22
68952;BMP180;56000;51.146;17.112;2023-12-04T10:06:24;100694.00;;;6.00
68952;BMP180;56000;51.146;17.112;2023-12-04T10:08:59;100688.40;;;5.80
68952;BMP180;56000;51.146;17.112;2023-12-04T10:11:32;100680.80;;;5.90
68952;BMP180;56000;51.146;17.112;2023-12-04T10:14:06;100679.60;;;6.04
68952;BMP180;56000;51.146;17.112;2023-12-04T10:16:46;100680.40;;;6.30
68952;BMP180;56000;51.146;17.112;2023-12-04T10:19:24;100678.20;;;6.54
68952;BMP180;56000;51.146;17.112;2023-12-04T10:21:59;100667.60;;;6.98
68952;BMP180;56000;51.146;17.112;2023-12-04T10:24:34;100661.00;;;7.46
68952;BMP180;56000;51.146;17.112;2023-12-04T10:27:10;100661.80;;;7.60
68952;BMP180;56000;51.146;17.112;2023-12-04T10:29:48;100663.80;;;7.22
68952;BMP180;56000;51.146;17.112;2023-12-04T10:32:23;100663.00;;;6.28
68952;BMP180;56000;51.146;17.112;2023-12-04T10:34:59;100662.80;;;5.00
68952;BMP180;56000;51.146;17.112;2023-12-04T10:37:33;100662.80;;;3.90
68952;BMP180;56000;51.146;17.112;2023-12-04T10:40:10;100665.60;;;2.94
68952;BMP180;56000;51.146;17.112;2023-12-04T10:42:44;100661.40;;;2.22
68952;BMP180;56000;51.146;17.112;2023-12-04T10:45:17;100666.80;;;1.64
68952;BMP180;56000;51.146;17.112;2023-12-04T10:47:53;100665.60;;;1.10
68952;BMP180;56000;51.146;17.112;2023-12-04T10:50:26;100665.40;;;0.80
68952;BMP180;56000;51.146;17.112;2023-12-04T10:53:01;100662.80;;;0.50
68952;BMP180;56000;51.146;17.112;2023-12-04T10:55:36;100670.40;;;0.50
68952;BMP180;56000;51.146;17.112;2023-12-04T10:58:11;100671.60;;;0.50
68952;BMP180;56000;51.146;17.112;2023-12-04T11:00:47;100672.60;;;0.50
68952;BMP180;56000;51.146;17.112;2023-12-04T11:03:24;100673.00;;;0.40
68952;BMP180;56000;51.146;17.112;2023-12-04T11:06:02;100669.00;;;0.30
68952;BMP180;56000;51.146;17.112;2023-12-04T11:08:37;100666.80;;;0.30
68952;BMP180;56000;51.146;17.112;2023-12-04T11:11:15;100666.40;;;0.30
68952;BMP180;56000;51.146;17.112;2023-12-04T11:13:50;100666.80;;;0.30
68952;BMP180;56000;51.146;17.112;2023-12-04T11:16:37;100662.40;;;0.30
68952;BMP180;56000;51.146;17.112;2023-12-04T11:19:18;100663.80;;;0.40
68952;BMP180;56000;51.146;17.112;2023-12-04T11:21:53;100659.40;;;0.40
68952;BMP180;56000;51.146;17.112;2023-12-04T11:24:29;100655.20;;;0.40
68952;BMP180;56000;51.146;17.112;2023-12-04T11:27:02;100659.00;;;0.50
68952;BMP180;56000;51.146;17.112;2023-12-04T11:29:35;100654.20;;;0.50
68952;BMP180;56000;51.146;17.112;2023-12-04T11:32:15;100653.40;;;0.50
68952;BMP180;56000;51.146;17.112;2023-12-04T11:35:00;100644.20;;;0.40
68952;BMP180;56000;51.146;17.112;2023-12-04T11:37:34;100643.00;;;0.40
68952;BMP180;56000;51.146;17.112;2023-12-04T11:40:13;100642.60;;;0.40
68952;BMP180;56000;51.146;17.112;2023-12-04T11:42:47;100637.60;;;0.30
68952;BMP180;56000;51.146;17.112;2023-12-04T11:45:23;100630.20;;;0.40
68952;BMP180;56000;51.146;17.112;2023-12-04T11:47:58;100629.40;;;0.40
68952;BMP180;56000;51.146;17.112;2023-12-04T11:50:31;100623.20;;;0.50
68952;BMP180;56000;51.146;17.112;2023-12-04T11:53:05;100618.40;;;0.60
68952;BMP180;56000;51.146;17.112;2023-12-04T11:55:40;100613.40;;;0.60
68952;BMP180;56000;51.146;17.112;2023-12-04T11:58:13;100609.60;;;0.60
68952;BMP180;56000;51.146;17.112;2023-12-04T12:00:48;100603.00;;;0.62
68952;BMP180;56000;51.146;17.112;2023-12-04T12:03:24;100599.80;;;0.70
68952;BMP180;56000;51.146;17.112;2023-12-04T12:05:58;100591.80;;;0.80
68952;BMP180;56000;51.146;17.112;2023-12-04T12:08:33;100590.40;;;0.70
68952;BMP180;56000;51.146;17.112;2023-12-04T12:11:07;100589.80;;;0.60
68952;BMP180;56000;51.146;17.112;2023-12-04T12:13:43;100581.40;;;0.60
68952;BMP180;56000;51.146;17.112;2023-12-04T12:16:19;100574.00;;;0.60
68952;BMP180;56000;51.146;17.112;2023-12-04T12:18:53;100577.00;;;0.50
68952;BMP180;56000;51.146;17.112;2023-12-04T12:21:27;100573.40;;;0.40
68952;BMP180;56000;51.146;17.112;2023-12-04T12:24:01;100575.20;;;0.30
68952;BMP180;56000;51.146;17.112;2023-12-04T12:26:35;100572.40;;;0.20
68952;BMP180;56000;51.146;17.112;2023-12-04T12:29:10;100569.60;;;0.14
68952;BMP180;56000;51.146;17.112;2023-12-04T12:31:43;100570.80;;;0.10
68952;BMP180;56000;51.146;17.112;2023-12-04T12:34:17;100568.40;;;0.00
68952;BMP180;56000;51.146;17.112;2023-12-04T12:36:50;100564.00;;;0.00
68952;BMP180;56000;51.146;17.112;2023-12-04T12:39:24;100558.00;;;-0.20
68952;BMP180;56000;51.146;17.112;2023-12-04T12:41:58;100559.00;;;-0.40
68952;BMP180;56000;51.146;17.112;2023-12-04T12:44:38;100556.20;;;-0.50
68952;BMP180;56000;51.146;17.112;2023-12-04T12:47:14;100545.20;;;-0.70
68952;BMP180;56000;51.146;17.112;2023-12-04T12:49:47;100539.40;;;-0.86
68952;BMP180;56000;51.146;17.112;2023-12-04T12:52:22;100539.60;;;-1.00
68952;BMP180;56000;51.146;17.112;2023-12-04T12:54:54;100534.60;;;-1.02
68952;BMP180;56000;51.146;17.112;2023-12-04T12:57:27;100530.40;;;-1.08
68952;BMP180;56000;51.146;17.112;2023-12-04T13:00:00;100527.80;;;-1.02
68952;BMP180;56000;51.146;17.112;2023-12-04T13:02:40;100526.80;;;-1.10
68952;BMP180;56000;51.146;17.112;2023-12-04T13:05:13;100515.20;;;-1.10
68952;BMP180;56000;51.146;17.112;2023-12-04T13:07:49;100506.20;;;-1.10
68952;BMP180;56000;51.146;17.112;2023-12-04T13:10:22;100501.00;;;-1.20
68952;BMP180;56000;51.146;17.112;2023-12-04T13:12:56;100495.60;;;-1.22
68952;BMP180;56000;51.146;17.112;2023-12-04T13:15:31;100495.40;;;-1.30
68952;BMP180;56000;51.146;17.112;2023-12-04T13:18:04;100491.00;;;-1.30
68952;BMP180;56000;51.146;17.112;2023-12-04T13:20:37;100487.80;;;-1.40
68952;BMP180;56000;51.146;17.112;2023-12-04T13:23:10;100489.40;;;-1.40
68952;BMP180;56000;51.146;17.112;2023-12-04T13:25:42;100489.40;;;-1.40
68952;BMP180;56000;51.146;17.112;2023-12-04T13:28:16;100485.60;;;-1.40
68952;BMP180;56000;51.146;17.112;2023-12-04T13:31:02;100489.40;;;-1.50
68952;BMP180;56000;51.146;17.112;2023-12-04T13:33:35;100477.40;;;-1.60
68952;BMP180;56000;51.146;17.112;2023-12-04T13:36:10;100478.60;;;-1.60
68952;BMP180;56000;51.146;17.112;2023-12-04T13:38:43;100475.00;;;-1.60
68952;BMP180;56000;51.146;17.112;2023-12-04T13:41:15;100469.60;;;-1.60
68952;BMP180;56000;51.146;17.112;2023-12-04T13:44:11;100467.60;;;-1.70
68952;BMP180;56000;51.146;17.112;2023-12-04T13:46:46;100465.60;;;-1.80
68952;BMP180;56000;51.146;17.112;2023-12-04T13:49:21;100459.40;;;-1.90
68952;BMP180;56000;51.146;17.112;2023-12-04T13:51:54;100454.60;;;-2.06
68952;BMP180;56000;51.146;17.112;2023-12-04T13:54:26;100451.00;;;-2.12
68952;BMP180;56000;51.146;17.112;2023-12-04T13:57:15;100455.80;;;-2.20
68952;BMP180;56000;51.146;17.112;2023-12-04T13:59:52;100460.20;;;-2.20
68952;BMP180;56000;51.146;17.112;2023-12-04T14:02:25;100462.20;;;-2.30
68952;BMP180;56000;51.146;17.112;2023-12-04T14:04:58;100459.80;;;-2.40
68952;BMP180;56000;51.146;17.112;2023-12-04T14:07:32;100460.80;;;-2.40
68952;BMP180;56000;51.146;17.112;2023-12-04T14:10:07;100459.60;;;-2.40
68952;BMP180;56000;51.146;17.112;2023-12-04T14:12:41;100462.20;;;-2.48
68952;BMP180;56000;51.146;17.112;2023-12-04T14:15:14;100465.60;;;-2.50
68952;BMP180;56000;51.146;17.112;2023-12-04T14:17:47;100461.60;;;-2.50
68952;BMP180;56000;51.146;17.112;2023-12-04T14:20:20;100457.00;;;-2.60
68952;BMP180;56000;51.146;17.112;2023-12-04T14:22:53;100457.60;;;-2.60
68952;BMP180;56000;51.146;17.112;2023-12-04T14:25:26;100449.20;;;-2.60
68952;BMP180;56000;51.146;17.112;2023-12-04T14:28:00;100448.60;;;-2.60